Wetterstation-Oberesslingen
Wetterdaten: aktuell Montag, 30.11.2020 02:05
Datum Zeit Temperatur BodenT. -10 Temp+5cm Luftfeuchte Bod.Feuchte Luftdruck Regen Wind Richtung Richtung Sonnenschein ET Solar Taupunkt Windchill Windben
30.11.2020 02:05 -3,0 C 2,8 C -7,2 C 85 % 35 cb 1027,0 hPa 0,0 l/m 1,1 km/h (1 Bft) N 0 0 min 0,000 mm 0 W/m -5,2 C -3,0 C 0,0 km/h (0 Bft)
30.11.2020 01:05 -2,3 C 3,3 C -6,7 C 84 % 35 cb 1026,9 hPa 0,0 l/m 1,1 km/h (1 Bft) N 0 0 min 0,000 mm 0 W/m -4,6 C -2,3 C 0,0 km/h (0 Bft)
30.11.2020 00:05 -1,8 C 3,3 C -5,6 C 83 % 35 cb 1026,8 hPa 0,0 l/m 1,1 km/h (1 Bft) O 90 0 min 0,000 mm 0 W/m -4,3 C -1,8 C 1,6 km/h (1 Bft)
29.11.2020 23:05 -0,9 C 3,3 C -5,6 C 81 % 34 cb 1026,9 hPa 0,0 l/m 1,1 km/h (1 Bft) O 90 0 min 0,000 mm 0 W/m -3,7 C -0,9 C 1,6 km/h (1 Bft)
29.11.2020 22:05 0,5 C 3,3 C -2,2 C 78 % 34 cb 1026,8 hPa 0,0 l/m 1,1 km/h (1 Bft) O-NO 67 0 min 0,000 mm 0 W/m -2,9 C 0,5 C 1,6 km/h (1 Bft)
29.11.2020 21:05 1,2 C 3,3 C -0,6 C 77 % 34 cb 1026,8 hPa 0,0 l/m 2,7 km/h (1 Bft) O-SO 112 0 min 0,000 mm 0 W/m -2,4 C 1,2 C 1,6 km/h (1 Bft)
29.11.2020 20:05 0,9 C 3,3 C -0,6 C 78 % 34 cb 1026,6 hPa 0,0 l/m 1,1 km/h (1 Bft) O-SO 112 0 min 0,000 mm 0 W/m -2,5 C 0,9 C 1,6 km/h (1 Bft)
29.11.2020 19:05 0,5 C 3,3 C -1,1 C 78 % 34 cb 1026,4 hPa 0,0 l/m 1,1 km/h (1 Bft) N 0 0 min 0,000 mm 0 W/m -2,9 C 0,5 C 0,0 km/h (0 Bft)
29.11.2020 18:05 -0,6 C 3,3 C -3,3 C 79 % 34 cb 1025,8 hPa 0,0 l/m 1,1 km/h (1 Bft) O 90 0 min 0,000 mm 0 W/m -3,8 C -0,6 C 1,6 km/h (1 Bft)
29.11.2020 17:05 1,2 C 3,3 C -3,3 C 73 % 34 cb 1025,5 hPa 0,0 l/m 2,7 km/h (1 Bft) O 90 10 min 0,000 mm 0 W/m -3,1 C 1,2 C 3,2 km/h (1 Bft)
29.11.2020 16:05 2,7 C 3,3 C 0,6 C 68 % 34 cb 1024,9 hPa 0,0 l/m 4,3 km/h (1 Bft) O 90 30 min 0,051 mm 23 W/m -2,6 C 2,7 C 9,7 km/h (2 Bft)
29.11.2020 15:05 3,1 C 3,3 C 3,3 C 68 % 34 cb 1025,0 hPa 0,0 l/m 6,0 km/h (2 Bft) O 90 25 min 0,051 mm 142 W/m -2,2 C 1,5 C 11,3 km/h (2 Bft)
29.11.2020 14:05 2,5 C 3,3 C 3,3 C 69 % 34 cb 1024,9 hPa 0,0 l/m 6,0 km/h (2 Bft) O-SO 112 5 min 0,051 mm 123 W/m -2,6 C 0,8 C 11,3 km/h (2 Bft)
29.11.2020 13:05 2,1 C 3,3 C 1,7 C 69 % 34 cb 1025,0 hPa 0,0 l/m 6,0 km/h (2 Bft) O-SO 112 0 min 0,051 mm 91 W/m -3,0 C 0,4 C 12,9 km/h (3 Bft)
29.11.2020 12:05 2,1 C 2,8 C 2,2 C 69 % 34 cb 1025,1 hPa 0,0 l/m 7,6 km/h (2 Bft) O-SO 112 20 min 0,076 mm 104 W/m -3,0 C -0,2 C 14,5 km/h (3 Bft)
29.11.2020 11:05 1,9 C 2,8 C 3,3 C 70 % 34 cb 1025,4 hPa 0,0 l/m 4,3 km/h (1 Bft) O 90 0 min 0,051 mm 111 W/m -3,0 C 1,9 C 6,4 km/h (2 Bft)
29.11.2020 10:05 1,6 C 2,8 C 1,7 C 72 % 34 cb 1025,4 hPa 0,0 l/m 9,2 km/h (2 Bft) O 90 0 min 0,025 mm 53 W/m -2,9 C -1,2 C 16,1 km/h (3 Bft)
29.11.2020 09:05 1,3 C 2,8 C 1,1 C 74 % 34 cb 1025,0 hPa 0,0 l/m 4,3 km/h (1 Bft) O 90 0 min 0,025 mm 26 W/m -2,8 C 1,3 C 9,7 km/h (2 Bft)
29.11.2020 08:05 1,4 C 2,8 C 1,1 C 74 % 34 cb 1024,3 hPa 0,0 l/m 6,0 km/h (2 Bft) O 90 0 min 0,025 mm 0 W/m -2,7 C -0,4 C 14,5 km/h (3 Bft)
29.11.2020 07:05 1,5 C 2,8 C 1,1 C 76 % 34 cb 1024,0 hPa 0,0 l/m 4,3 km/h (1 Bft) SO 135 0 min 0,000 mm 0 W/m -2,3 C 1,5 C 6,4 km/h (2 Bft)
29.11.2020 06:05 1,8 C 2,8 C 1,1 C 77 % 34 cb 1023,5 hPa 0,0 l/m 6,0 km/h (2 Bft) O 90 0 min 0,000 mm 0 W/m -1,8 C 0,0 C 12,9 km/h (3 Bft)
29.11.2020 05:05 2,0 C 2,8 C 1,7 C 80 % 34 cb 1023,1 hPa 0,0 l/m 2,7 km/h (1 Bft) O 90 0 min 0,000 mm 0 W/m -1,1 C 2,0 C 3,2 km/h (1 Bft)
29.11.2020 04:05 2,1 C 2,8 C 1,7 C 81 % 34 cb 1023,2 hPa 0,0 l/m 7,6 km/h (2 Bft) O 90 0 min 0,000 mm 0 W/m -0,8 C -0,2 C 14,5 km/h (3 Bft)
29.11.2020 03:05 2,3 C 2,8 C 1,7 C 83 % 34 cb 1023,1 hPa 0,0 l/m 4,3 km/h (1 Bft) O 90 0 min 0,000 mm 0 W/m -0,3 C 2,3 C 6,4 km/h (2 Bft)
29.11.2020 03:00 2,3 C 2,8 C 1,7 C 83 % 34 cb 1023,1 hPa 0,0 l/m 2,7 km/h (1 Bft) O 90 0 min 0,000 mm 0 W/m -0,3 C 2,3 C 4,8 km/h (1 Bft)
_ Min-Zeit 02:05 03:00 01:30 15:15 03:00 03:25 - 16:35 - - - - - 02:05 02:05 17:30
Minimum _ -3,0 C 2,8 C -7,2 C 67 % 34 cb 1023,0 hPa - 1,1 km/h (1 Bft) - - - - - -5,2 C -3,0 C 0,0 km/h (0 Bft)
_ Max-Zeit 15:15 12:15 11:25 01:15 23:55 00:30 03:00 11:45 - - 11:25 12:00 11:50 03:15 15:15 11:45
Maximum _ 3,2 C 3,3 C 5,0 C 85 % 35 cb 1027,1 hPa 0,0 l/m 12,4 km/h
O (2 Bft)
- - 5 min 0,076 mm 232 W/m -0,2 C 3,2 C 22,5 km/h
O (4 Bft)
Durchschnitt _ 1,1 C 3,1 C -0,2 C 76 % 34 cb 1025,1 hPa #0,0 l/m 4,1 km/h (1 Bft) O - #0 min. #0,000 mm 0 W/m -2,6 C 0,4 C 7,4 km/h (2 Bft)